Time;durP1;ratioP1;P1;durP2;ratioP2;P2;SDS_P1;SDS_P2;PMS_P1;PMS_P2;Temp;Humidity;BMP_temperature;BMP_pressure;BME280_temperature;BME280_humidity;BME280_pressure;Samples;Min_cycle;Max_cycle;Signal;HPM_P1;HPM_P2
2023/12/05 00:06:51;;;;;;;109.80;40.90;;;;;;;-3.11;100.00;100467.29;214129;1291;141397;-79
2023/12/05 00:12:45;;;;;;;66.90;29.80;;;;;;;-3.11;100.00;100464.83;214315;1290;140245;-79
2023/12/05 00:18:49;;;;;;;84.10;31.90;;;;;;;-3.10;100.00;100454.73;214022;1290;141219;-80
2023/12/05 00:24:49;;;;;;;69.80;30.10;;;;;;;-3.09;100.00;100451.28;214733;1291;139567;-80
2023/12/05 00:30:50;;;;;;;60.00;25.20;;;;;;;-3.10;100.00;100446.67;214146;1290;140467;-79
2023/12/05 00:36:52;;;;;;;92.00;31.40;;;;;;;-3.11;100.00;100447.90;214167;1290;140916;-79
2023/12/05 00:42:53;;;;;;;138.90;43.40;;;;;;;-3.13;100.00;100445.61;213256;1292;139514;-79
2023/12/05 00:48:54;;;;;;;70.40;29.00;;;;;;;-3.15;100.00;100445.21;217461;1289;141194;-79
2023/12/05 00:54:56;;;;;;;73.50;28.60;;;;;;;-3.17;100.00;100444.05;218053;1289;140058;-79
2023/12/05 01:00:57;;;;;;;70.00;27.20;;;;;;;-3.20;100.00;100442.03;217494;1290;140552;-79
2023/12/05 01:06:58;;;;;;;468.90;118.70;;;;;;;-3.21;100.00;100446.56;214460;1290;140984;-79
2023/12/05 01:13:01;;;;;;;150.90;47.30;;;;;;;-3.24;100.00;100441.17;214216;1292;139668;-79
2023/12/05 01:25:01;;;;;;;80.50;31.30;;;;;;;-3.34;100.00;100437.88;213018;1293;139760;-78
2023/12/05 01:31:03;;;;;;;88.20;32.80;;;;;;;-3.41;100.00;100434.24;213392;1291;140652;-78
2023/12/05 01:37:04;;;;;;;114.00;41.40;;;;;;;-3.46;100.00;100429.17;211936;1290;140787;-79
2023/12/05 01:43:05;;;;;;;96.30;33.10;;;;;;;-3.48;100.00;100426.42;214400;1289;140277;-79
2023/12/05 01:49:06;;;;;;;64.30;26.20;;;;;;;-3.50;100.00;100429.33;213914;1291;140976;-79
2023/12/05 01:55:08;;;;;;;55.10;24.70;;;;;;;-3.50;100.00;100426.21;214325;1290;139990;-79
2023/12/05 02:01:09;;;;;;;57.00;26.70;;;;;;;-3.53;100.00;100421.77;215062;1290;140479;-79
2023/12/05 02:07:10;;;;;;;52.20;23.70;;;;;;;-3.55;100.00;100421.41;213907;1290;140671;-77
2023/12/05 02:19:22;;;;;;;142.10;52.20;;;;;;;-3.58;100.00;100418.93;212113;1293;141050;-79
2023/12/05 02:25:26;;;;;;;79.90;29.00;;;;;;;-3.61;100.00;100417.30;216671;1290;111710;-79
2023/12/05 02:31:27;;;;;;;63.00;24.90;;;;;;;-3.64;100.00;100417.00;214543;1293;111313;-79
2023/12/05 02:37:28;;;;;;;76.00;30.20;;;;;;;-3.69;100.00;100418.33;214026;1289;141076;-79
2023/12/05 02:43:29;;;;;;;58.20;25.00;;;;;;;-3.74;100.00;100415.31;214562;1290;140956;-79
2023/12/05 02:49:31;;;;;;;53.80;24.40;;;;;;;-3.75;100.00;100411.61;212049;1293;140792;-79
2023/12/05 02:55:32;;;;;;;119.60;41.20;;;;;;;-3.78;100.00;100410.08;212510;1293;113683;-79
2023/12/05 03:01:33;;;;;;;68.80;27.20;;;;;;;-3.82;100.00;100414.21;212534;1291;140529;-79
2023/12/05 03:07:36;;;;;;;58.40;26.20;;;;;;;-3.87;100.00;100406.09;211893;1293;141305;-79
2023/12/05 03:13:36;;;;;;;75.40;30.20;;;;;;;-3.90;100.00;100400.08;212579;1293;105010;-79
2023/12/05 03:19:38;;;;;;;64.80;27.20;;;;;;;-3.93;100.00;100399.42;212663;1293;141416;-79
2023/12/05 03:25:38;;;;;;;53.40;23.90;;;;;;;-3.97;100.00;100392.69;212342;1293;139256;-78
2023/12/05 03:31:40;;;;;;;69.50;28.50;;;;;;;-3.99;100.00;100393.02;214182;1289;226136;-79
2023/12/05 03:37:41;;;;;;;70.90;28.40;;;;;;;-4.02;100.00;100382.08;211926;1293;141260;-79
2023/12/05 03:43:31;;;;;;;;;;;;;;;;;;;;;
2023/12/05 03:49:34;;;;;;;123.20;43.80;;;;;;;-4.13;100.00;100378.09;211920;1291;141143;-79
2023/12/05 03:55:35;;;;;;;109.40;41.00;;;;;;;-4.18;100.00;100382.06;215203;1290;140191;-79
2023/12/05 04:01:36;;;;;;;69.70;29.50;;;;;;;-4.20;100.00;100375.61;212229;1293;139938;-79
2023/12/05 04:07:37;;;;;;;64.80;27.40;;;;;;;-4.18;100.00;100379.16;214784;1288;140780;-77
2023/12/05 04:13:41;;;;;;;218.90;66.50;;;;;;;-4.21;100.00;100382.30;215252;1289;139798;-78
2023/12/05 04:19:42;;;;;;;113.30;38.80;;;;;;;-4.23;100.00;100384.37;215845;1293;140835;-78
2023/12/05 04:25:43;;;;;;;106.90;37.40;;;;;;;-4.25;100.00;100381.58;218117;1289;95937;-79
2023/12/05 04:31:42;;;;;;;;;;;;;;;;;;;;;
2023/12/05 04:37:44;;;;;;;91.00;35.70;;;;;;;-4.31;100.00;100379.48;212383;1291;140958;-78
2023/12/05 04:55:49;;;;;;;119.40;41.60;;;;;;;-4.45;100.00;100383.61;216854;1290;140363;-78
2023/12/05 05:01:50;;;;;;;84.20;32.30;;;;;;;-4.46;100.00;100373.73;212735;1293;106870;-78
2023/12/05 05:07:52;;;;;;;81.10;31.30;;;;;;;-4.51;100.00;100374.85;212033;1290;141063;-78
2023/12/05 05:19:44;;;;;;;173.00;45.00;;;;;;;-4.63;100.00;100379.80;212253;1293;141329;-78
2023/12/05 05:25:44;;;;;;;326.40;85.90;;;;;;;-4.67;100.00;100380.33;214282;1290;140335;-78
2023/12/05 05:31:44;;;;;;;;;;;;;;;;;;;;;
2023/12/05 05:37:46;;;;;;;339.70;80.60;;;;;;;-4.64;100.00;100379.83;212395;1290;141570;-79
2023/12/05 05:43:48;;;;;;;451.70;105.70;;;;;;;-4.66;100.00;100377.42;213900;1289;140144;-79
2023/12/05 05:49:40;;;;;;;;;;;;;;;;;;;;;
2023/12/05 06:01:43;;;;;;;170.20;53.80;;;;;;;-4.66;100.00;100371.08;218082;1290;140854;-79
2023/12/05 06:07:45;;;;;;;111.60;41.00;;;;;;;-4.70;100.00;100369.23;212485;1291;141087;-78
2023/12/05 06:13:46;;;;;;;103.40;37.50;;;;;;;-4.67;100.00;100373.02;212757;1291;139530;-80
2023/12/05 06:31:49;;;;;;;84.30;35.10;;;;;;;-4.69;100.00;100393.98;212425;1293;139279;-77
2023/12/05 06:38:16;;;;;;;82.60;32.40;;;;;;;-4.72;100.00;100386.54;212001;1293;141129;-78
2023/12/05 06:43:52;;;;;;;93.50;36.30;;;;;;;-4.76;100.00;100388.96;212394;1291;139349;-79
2023/12/05 06:49:54;;;;;;;92.00;36.60;;;;;;;-4.81;100.00;100387.02;211845;1294;141898;-78
2023/12/05 06:55:52;;;;;;;;;;;;;;;;;;;;;
2023/12/05 07:01:55;;;;;;;78.30;33.30;;;;;;;-4.86;100.00;100392.78;213852;1293;139325;-78
2023/12/05 07:07:56;;;;;;;72.70;30.60;;;;;;;-4.87;100.00;100392.04;213691;1290;141977;-79
2023/12/05 07:13:58;;;;;;;83.70;32.60;;;;;;;-4.89;100.00;100394.73;214391;1291;139924;-79
2023/12/05 07:19:59;;;;;;;275.30;84.30;;;;;;;-4.91;100.00;100391.21;213993;1291;141384;-79
2023/12/05 07:26:00;;;;;;;;;;;;;;;;;;;;;
2023/12/05 07:31:55;;;;;;;;;;;;;;;;;;;;;
2023/12/05 07:38:00;;;;;;;215.50;60.00;;;;;;;-4.96;100.00;100390.63;211982;1292;141747;-78
2023/12/05 07:43:50;;;;;;;;;;;;;;;;;;;;;
2023/12/05 07:49:52;;;;;;;301.50;77.90;;;;;;;-4.92;100.00;100393.14;211797;1293;141548;-79
2023/12/05 07:55:53;;;;;;;134.00;47.70;;;;;;;-4.89;100.00;100389.04;213082;1291;139872;-79
2023/12/05 08:01:53;;;;;;;;;;;;;;;;;;;;;
2023/12/05 08:07:55;;;;;;;142.20;48.40;;;;;;;-4.80;100.00;100383.14;212137;1293;141804;-78
2023/12/05 08:13:47;;;;;;;;;;;;;;;;;;;;;
2023/12/05 08:19:39;;;;;;;;;;;;;;;;;;;;;
2023/12/05 08:25:26;;;;;;;;;;;;;;;;;;;;;
2023/12/05 08:31:28;;;;;;;128.10;42.20;;;;;;;-4.63;100.00;100381.32;212492;1293;139610;-77
2023/12/05 08:37:31;;;;;;;99.70;39.40;;;;;;;-4.55;100.00;100380.56;212014;1293;141330;-75
2023/12/05 08:43:30;;;;;;;83.60;34.30;;;;;;;-4.52;100.00;100389.20;213011;1293;139443;-75
2023/12/05 08:49:31;;;;;;;90.30;36.10;;;;;;;-4.46;100.00;100392.81;212088;1289;140810;-77
2023/12/05 08:55:33;;;;;;;115.80;48.30;;;;;;;-4.42;100.00;100395.02;212463;1293;139574;-76
2023/12/05 09:01:34;;;;;;;101.10;36.50;;;;;;;-4.35;100.00;100408.63;212781;1293;140727;-76
2023/12/05 09:07:35;;;;;;;94.20;34.00;;;;;;;-4.22;100.00;100414.87;212353;1293;141129;-76
2023/12/05 09:13:37;;;;;;;83.70;34.70;;;;;;;-4.10;100.00;100416.66;212944;1291;139934;-77
2023/12/05 09:25:39;;;;;;;63.20;31.60;;;;;;;-3.90;100.00;100417.67;213153;1294;139406;-77
2023/12/05 09:31:38;;;;;;;;;;;;;;;;;;;;;
2023/12/05 09:37:41;;;;;;;75.10;34.90;;;;;;;-3.79;100.00;100405.70;211812;1289;141149;-76
2023/12/05 09:44:10;;;;;;;78.60;33.80;;;;;;;-3.64;100.00;100401.67;212461;1294;139429;-77
2023/12/05 09:50:11;;;;;;;78.60;33.80;;;;;;;-3.48;100.00;100393.86;207800;1291;141411;-77
2023/12/05 09:55:57;;;;;;;80.80;33.40;;;;;;;-3.39;100.00;100382.95;212110;1293;139269;-76
2023/12/05 10:01:58;;;;;;;68.40;27.10;;;;;;;-3.21;100.00;100376.39;212476;1294;139316;-77
2023/12/05 10:07:59;;;;;;;69.30;31.40;;;;;;;-3.04;100.00;100375.14;211761;1291;140845;-76
2023/12/05 10:14:02;;;;;;;71.80;32.10;;;;;;;-2.84;100.00;100363.89;217177;1293;139959;-77
2023/12/05 10:26:03;;;;;;;68.70;31.20;;;;;;;-2.51;100.00;100346.13;212613;1294;98081;-78
2023/12/05 10:32:03;;;;;;;67.30;31.30;;;;;;;-2.35;100.00;100345.48;212693;1288;99342;-78
2023/12/05 10:37:57;;;;;;;;;;;;;;;;;;;;;
2023/12/05 10:44:02;;;;;;;75.80;31.50;;;;;;;-2.01;100.00;100335.47;212439;1293;139298;-78
2023/12/05 10:50:02;;;;;;;65.20;29.60;;;;;;;-1.90;99.98;100328.00;212023;1294;141964;-78
2023/12/05 11:02:04;;;;;;;72.00;31.00;;;;;;;-1.75;99.49;100313.32;212327;1294;139379;-79
2023/12/05 11:07:55;;;;;;;;;;;;;;;;;;;;;
2023/12/05 11:14:07;;;;;;;79.20;33.70;;;;;;;-1.68;98.83;100307.72;212847;1293;139260;-79
2023/12/05 11:20:14;;;;;;;74.10;30.90;;;;;;;-1.63;99.02;100301.68;212226;1293;140532;-79
2023/12/05 11:26:20;;;;;;;;;;;;;;;;;;;;;
2023/12/05 11:32:24;;;;;;;94.70;40.10;;;;;;;-1.59;98.06;100295.11;214726;1289;105027;-77
2023/12/05 11:38:37;;;;;;;88.50;37.80;;;;;;;-1.54;98.70;100293.85;214246;1291;140678;-78
2023/12/05 11:50:57;;;;;;;83.30;39.40;;;;;;;-1.51;98.41;100297.13;216891;1289;141211;-79
2023/12/05 11:56:58;;;;;;;75.70;35.70;;;;;;;-1.54;98.64;100301.50;211917;1293;140987;-78
2023/12/05 12:03:00;;;;;;;73.10;36.00;;;;;;;-1.56;97.75;100297.83;213184;1294;98280;-78
2023/12/05 12:15:03;;;;;;;82.30;34.90;;;;;;;-1.61;98.63;100288.70;213020;1294;99004;-78
2023/12/05 12:21:03;;;;;;;81.40;32.80;;;;;;;-1.65;98.35;100284.35;212318;1292;141720;-77
2023/12/05 12:27:06;;;;;;;91.70;41.00;;;;;;;-1.77;98.50;100287.46;212118;1293;142224;-77
2023/12/05 12:33:10;;;;;;;91.60;40.30;;;;;;;-1.85;98.27;100282.81;212767;1303;116536;-78
2023/12/05 12:38:50;;;;;;;83.50;36.90;;;;;;;-1.98;98.20;100279.49;212253;1293;140602;-78
2023/12/05 12:44:52;;;;;;;91.80;37.90;;;;;;;-2.06;99.01;100285.95;212730;1294;140117;-78
2023/12/05 12:50:53;;;;;;;86.30;35.60;;;;;;;-2.13;99.01;100275.67;215471;1293;140502;-77
2023/12/05 12:56:54;;;;;;;84.60;38.10;;;;;;;-2.22;99.05;100272.00;213451;1293;140980;-78
2023/12/05 13:02:55;;;;;;;88.90;37.70;;;;;;;-2.30;99.70;100264.92;212417;1294;139362;-78
2023/12/05 13:08:56;;;;;;;91.50;42.00;;;;;;;-2.36;99.47;100270.15;212848;1294;141499;-77
2023/12/05 13:14:58;;;;;;;81.10;33.10;;;;;;;-2.43;99.72;100278.20;214113;1293;139250;-78
2023/12/05 13:21:05;;;;;;;86.80;38.60;;;;;;;-2.48;99.88;100276.52;211965;1294;141406;-78
2023/12/05 13:27:22;;;;;;;94.60;42.20;;;;;;;-2.46;100.00;100273.36;212744;1289;141673;-76
2023/12/05 13:32:59;;;;;;;87.70;39.20;;;;;;;-2.49;100.00;100278.23;212320;1303;139608;-78
2023/12/05 13:38:55;;;;;;;;;;;;;;;;;;;;;
2023/12/05 13:45:05;;;;;;;114.30;49.60;;;;;;;-2.56;100.00;100290.65;212671;1289;139249;-77
2023/12/05 13:56:56;;;;;;;;;;;;;;;;;;;;;
2023/12/05 14:02:58;;;;;;;93.40;43.90;;;;;;;-2.65;100.00;100300.42;212486;1294;140108;-76
2023/12/05 14:09:00;;;;;;;97.60;40.80;;;;;;;-2.77;100.00;100302.95;212324;1296;140809;-77
2023/12/05 14:15:01;;;;;;;93.40;40.10;;;;;;;-2.86;100.00;100295.45;212630;1292;139445;-77
2023/12/05 14:20:53;;;;;;;92.90;41.60;;;;;;;-2.93;100.00;100297.25;211834;1294;141379;-77
2023/12/05 14:32:55;;;;;;;92.50;39.70;;;;;;;-3.03;100.00;100314.52;213927;1294;139904;-77
2023/12/05 14:38:57;;;;;;;97.60;41.20;;;;;;;-3.13;100.00;100325.90;212106;1289;141361;-77
2023/12/05 14:44:58;;;;;;;98.70;45.10;;;;;;;-3.18;100.00;100328.93;212480;1291;139858;-77
2023/12/05 14:50:59;;;;;;;103.40;43.80;;;;;;;-3.21;100.00;100329.23;212516;1291;140498;-78
2023/12/05 14:57:00;;;;;;;85.60;39.20;;;;;;;-3.26;100.00;100323.22;217557;1288;141784;-78
2023/12/05 15:03:01;;;;;;;94.00;40.10;;;;;;;-3.33;100.00;100324.70;217900;1289;140193;-77
2023/12/05 15:09:03;;;;;;;113.00;43.30;;;;;;;-3.38;100.00;100326.98;217485;1289;141251;-78
2023/12/05 15:20:53;;;;;;;;;;;;;;;;;;;;;
2023/12/05 15:26:55;;;;;;;111.00;45.60;;;;;;;-3.48;100.00;100336.08;211946;1289;140931;-79
2023/12/05 15:32:57;;;;;;;99.50;42.50;;;;;;;-3.46;100.00;100336.98;212280;1294;139804;-78
2023/12/05 15:38:57;;;;;;;120.50;49.20;;;;;;;-3.50;100.00;100345.89;212163;1293;141296;-79
2023/12/05 15:51:00;;;;;;;99.50;42.90;;;;;;;-3.51;100.00;100335.52;211692;1290;141744;-79
2023/12/05 15:57:01;;;;;;;94.50;39.50;;;;;;;-3.51;100.00;100334.39;211628;1294;141673;-78
2023/12/05 16:03:03;;;;;;;108.90;47.40;;;;;;;-3.48;100.00;100339.30;212365;1293;140007;-78
2023/12/05 16:09:06;;;;;;;103.00;42.20;;;;;;;-3.44;100.00;100337.44;211910;1290;141140;-78
2023/12/05 16:15:07;;;;;;;94.40;40.70;;;;;;;-3.46;100.00;100350.10;213527;1292;139985;-78
2023/12/05 16:21:08;;;;;;;100.30;42.80;;;;;;;-3.47;100.00;100344.08;211972;1289;140136;-78
2023/12/05 16:27:09;;;;;;;100.50;46.00;;;;;;;-3.49;100.00;100344.05;211787;1293;140992;-78
2023/12/05 16:33:03;;;;;;;107.90;45.60;;;;;;;-3.51;100.00;100328.25;212794;1293;139553;-78
2023/12/05 16:39:04;;;;;;;106.60;41.50;;;;;;;-3.50;100.00;100327.73;213974;1289;141609;-78
2023/12/05 16:44:58;;;;;;;104.80;45.10;;;;;;;-3.48;100.00;100336.45;216611;1289;140035;-78
2023/12/05 16:50:59;;;;;;;100.00;44.80;;;;;;;-3.47;100.00;100343.83;212696;1293;141734;-79
2023/12/05 16:56:53;;;;;;;103.70;45.30;;;;;;;-3.48;100.00;100349.05;216110;1289;142846;-79
2023/12/05 17:02:54;;;;;;;90.40;42.70;;;;;;;-3.47;100.00;100357.13;212883;1293;140215;-79
2023/12/05 17:14:57;;;;;;;94.90;40.70;;;;;;;-3.42;100.00;100371.25;213149;1289;139863;-79
2023/12/05 17:20:58;;;;;;;120.50;48.00;;;;;;;-3.43;100.00;100368.38;212612;1293;141595;-78
2023/12/05 17:26:58;;;;;;;105.50;45.20;;;;;;;-3.43;100.00;100365.62;217553;1290;141565;-78
2023/12/05 17:38:52;;;;;;;;;;;;;;;;;;;;;
2023/12/05 17:44:56;;;;;;;106.90;43.30;;;;;;;-3.46;100.00;100355.26;212292;1291;140845;-78
2023/12/05 17:50:56;;;;;;;98.80;43.70;;;;;;;-3.52;100.00;100351.88;214176;1291;141569;-79
2023/12/05 17:56:57;;;;;;;104.00;43.30;;;;;;;-3.51;100.00;100353.61;213395;1291;140755;-78
2023/12/05 18:02:58;;;;;;;98.40;43.20;;;;;;;-3.50;100.00;100348.32;212232;1291;139719;-78
2023/12/05 18:08:59;;;;;;;92.40;43.00;;;;;;;-3.49;100.00;100349.76;214729;1290;140617;-79
2023/12/05 18:15:01;;;;;;;95.60;43.50;;;;;;;-3.44;100.00;100351.11;212048;1290;139909;-78
2023/12/05 18:21:02;;;;;;;88.30;37.20;;;;;;;-3.40;100.00;100352.02;217497;1289;140327;-79
2023/12/05 18:27:03;;;;;;;85.50;39.30;;;;;;;-3.39;100.00;100357.44;213807;1291;140889;-79
2023/12/05 18:33:04;;;;;;;97.80;45.70;;;;;;;-3.35;100.00;100355.98;212072;1291;140080;-79
2023/12/05 18:38:58;;;;;;;;;;;;;;;;;;;;;
2023/12/05 18:44:59;;;;;;;105.90;45.60;;;;;;;-3.36;100.00;100360.04;214281;1295;140488;-79
2023/12/05 18:51:01;;;;;;;98.00;44.80;;;;;;;-3.33;100.00;100364.26;217301;1293;140692;-79
2023/12/05 18:57:02;;;;;;;98.40;42.80;;;;;;;-3.34;100.00;100367.99;212596;1295;142668;-78
2023/12/05 19:03:03;;;;;;;92.60;41.30;;;;;;;-3.28;100.00;100368.44;212058;1296;139410;-79
2023/12/05 19:09:05;;;;;;;95.50;41.10;;;;;;;-3.22;100.00;100375.27;211719;1290;142002;-79
2023/12/05 19:14:58;;;;;;;;;;;;;;;;;;;;;
2023/12/05 19:27:05;;;;;;;99.40;44.20;;;;;;;-3.19;100.00;100372.33;211909;1290;142126;-79
2023/12/05 19:33:06;;;;;;;96.50;42.80;;;;;;;-3.20;100.00;100371.37;213167;1293;138762;-77
2023/12/05 19:39:07;;;;;;;112.30;49.00;;;;;;;-3.21;100.00;100369.39;217326;1290;141222;-78
2023/12/05 19:45:09;;;;;;;95.50;42.90;;;;;;;-3.18;100.00;100375.32;217858;1290;139579;-78
2023/12/05 19:57:20;;;;;;;;;;;;;;;;;;;;;
2023/12/05 20:03:09;;;;;;;;;;;;;;;;;;;;;
2023/12/05 20:09:04;;;;;;;;;;;;;;;;;;;;;
2023/12/05 20:15:06;;;;;;;99.70;45.20;;;;;;;-3.14;100.00;100392.11;212095;1293;139879;-78
2023/12/05 20:27:08;;;;;;;104.20;44.50;;;;;;;-3.09;100.00;100383.89;211690;1291;140966;-78
2023/12/05 20:33:10;;;;;;;111.20;43.90;;;;;;;-3.12;100.00;100379.94;212245;1291;140592;-78
2023/12/05 20:39:11;;;;;;;94.70;41.50;;;;;;;-3.11;100.00;100373.14;213635;1293;141448;-78
2023/12/05 20:51:15;;;;;;;101.90;42.70;;;;;;;-3.09;100.00;100374.66;212327;1293;139941;-79
2023/12/05 20:57:06;;;;;;;104.70;47.60;;;;;;;-3.10;100.00;100371.73;214381;1289;141148;-77
2023/12/05 21:03:07;;;;;;;116.10;47.40;;;;;;;-3.10;100.00;100365.80;212357;1293;139391;-78
2023/12/05 21:09:04;;;;;;;;;;;;;;;;;;;;;
2023/12/05 21:15:06;;;;;;;103.40;46.20;;;;;;;-3.08;100.00;100369.65;214298;1291;139938;-78
2023/12/05 21:21:08;;;;;;;96.30;43.10;;;;;;;-3.06;100.00;100377.21;211779;1293;141132;-78
2023/12/05 21:33:02;;;;;;;120.90;47.60;;;;;;;-3.02;100.00;100381.89;212263;1293;139996;-80
2023/12/05 21:39:03;;;;;;;100.90;48.70;;;;;;;-3.00;100.00;100381.50;213760;1290;141577;-80
2023/12/05 21:45:05;;;;;;;115.70;51.50;;;;;;;-3.01;100.00;100383.50;208568;1294;5371058;-80
2023/12/05 21:50:46;;;;;;;;;;;;;;;-3.01;100.00;100390.88;212043;1294;141088;-80
2023/12/05 21:56:49;;;;;;;110.30;45.30;;;;;;;-3.01;100.00;100391.15;211998;1293;126901;-81
2023/12/05 22:02:51;;;;;;;108.30;45.60;;;;;;;-3.01;100.00;100392.55;212959;1289;140218;-79
2023/12/05 22:14:56;;;;;;;111.20;47.40;;;;;;;-2.95;100.00;100400.86;217930;1289;140212;-80
2023/12/05 22:20:37;;;;;;;;;;;;;;;;;;;;;
2023/12/05 22:26:41;;;;;;;100.10;44.60;;;;;;;-2.92;100.00;100394.75;217472;1290;141223;-80
2023/12/05 22:32:43;;;;;;;111.50;47.70;;;;;;;-2.88;100.00;100392.92;217856;1289;140186;-80
2023/12/05 22:38:44;;;;;;;119.30;60.60;;;;;;;-2.86;100.00;100395.33;215936;1291;141160;-80
2023/12/05 22:44:45;;;;;;;112.90;45.10;;;;;;;-2.85;100.00;100399.28;215065;1291;140090;-80
2023/12/05 22:50:45;;;;;;;;;;;;;;;;;;;;;
2023/12/05 22:56:47;;;;;;;106.70;48.30;;;;;;;-2.83;100.00;100398.50;212038;1291;140884;-81
2023/12/05 23:02:48;;;;;;;102.30;45.80;;;;;;;-2.83;100.00;100394.41;212424;1290;139557;-80
2023/12/05 23:08:48;;;;;;;106.80;46.60;;;;;;;-2.82;100.00;100389.93;215298;1290;141094;-79
2023/12/05 23:14:50;;;;;;;137.70;52.30;;;;;;;-2.81;100.00;100380.96;212542;1291;139607;-80
2023/12/05 23:20:52;;;;;;;127.50;50.70;;;;;;;-2.81;100.00;100383.14;211847;1293;140711;-80
2023/12/05 23:26:52;;;;;;;112.70;44.40;;;;;;;-2.83;100.00;100372.88;212109;1291;140989;-80
2023/12/05 23:32:52;;;;;;;;;;;;;;;;;;;;;
2023/12/05 23:38:50;;;;;;;141.40;53.00;;;;;;;-2.81;100.00;100357.72;212384;1293;140864;-79
2023/12/05 23:44:44;;;;;;;116.00;46.50;;;;;;;-2.80;100.00;100369.91;213764;1291;139599;-80
2023/12/05 23:50:38;;;;;;;120.20;47.40;;;;;;;-2.79;100.00;100363.44;212086;1291;141119;-80
2023/12/05 23:56:39;;;;;;;103.50;43.50;;;;;;;-2.83;100.00;100353.48;211873;1293;141603;-80
